createdAt,value
2018-01-01T00:01:59.906Z,99.85
2018-01-01T00:02:59.646Z,99.66
2018-01-01T00:03:59.943Z,99.56
2018-01-01T00:04:59.688Z,99.75
2018-01-01T00:05:59.985Z,99.75
2018-01-01T00:07:00.107Z,99.46
2018-01-01T00:08:14.682Z,99.75
2018-01-01T00:09:00.026Z,99.85
2018-01-01T00:10:00.064Z,99.66
2018-01-01T00:10:59.812Z,99.99
2018-01-01T00:12:00.094Z,99.08
2018-01-01T00:12:59.861Z,99.37
2018-01-01T00:14:00.126Z,99.27
2018-01-01T00:15:00.172Z,99.08
2018-01-01T00:16:00.192Z,99.08
2018-01-01T00:16:59.929Z,99.46
2018-01-01T00:18:00.248Z,99.46
2018-01-01T00:20:00.243Z,99.18
2018-01-01T00:21:00.258Z,98.9
2018-01-01T00:22:00.304Z,99.56
2018-01-01T00:23:14.985Z,99.46
2018-01-01T00:24:00.324Z,99.46
2018-01-01T00:25:00.093Z,99.18
2018-01-01T00:26:00.469Z,99.18
2018-01-01T00:27:00.386Z,98.9
2018-01-01T00:28:00.171Z,99.18
2018-01-01T00:29:00.426Z,98.8
2018-01-01T00:30:00.473Z,98.51
2018-01-01T00:31:00.464Z,98.42
2018-01-01T00:32:00.247Z,98.42
2018-01-01T00:33:00.496Z,98.51
2018-01-01T00:34:00.271Z,98.7
2018-01-01T00:35:00.546Z,98.03
2018-01-01T00:36:00.629Z,98.03
2018-01-01T00:37:00.357Z,98.42
2018-01-01T00:38:00.624Z,98.32
2018-01-01T00:39:00.628Z,98.22
2018-01-01T00:40:00.392Z,98.13
2018-01-01T00:41:00.664Z,98.13
2018-01-01T00:42:00.686Z,98.42
2018-01-01T00:43:00.709Z,97.75
2018-01-01T00:44:00.755Z,98.03
2018-01-01T00:45:00.767Z,97.37
2018-01-01T00:46:00.775Z,98.03
2018-01-01T00:47:00.789Z,97.75
2018-01-01T00:49:00.828Z,97.75
2018-01-01T00:50:00.868Z,97.75
2018-01-01T00:51:00.616Z,97.66
2018-01-01T00:52:00.911Z,97.56
2018-01-01T00:53:00.904Z,97.75
2018-01-01T00:54:00.947Z,97.56
2018-01-01T00:55:15.629Z,97.66
2018-01-01T00:56:00.976Z,97.75
2018-01-01T00:58:01.006Z,97.37
2018-01-01T00:59:01.034Z,97.08
2018-01-01T01:00:00.790Z,97.17
2018-01-01T01:01:00.815Z,97.08
2018-01-01T01:03:01.113Z,96.7
2018-01-01T01:04:01.144Z,96.98
2018-01-01T01:05:01.144Z,97.27
2018-01-01T01:06:01.190Z,97.27
2018-01-01T01:07:01.205Z,96.61
2018-01-01T01:08:01.208Z,97.37
2018-01-01T01:09:01.257Z,97.37
2018-01-01T01:10:00.997Z,97.27
2018-01-01T01:11:15.950Z,97.85
2018-01-01T01:12:01.311Z,97.08
2018-01-01T01:13:01.307Z,97.37
2018-01-01T01:14:01.350Z,97.94
2018-01-01T01:16:01.388Z,97.08
2018-01-01T01:17:01.382Z,97.17
2018-01-01T01:18:01.159Z,97.08
2018-01-01T01:19:01.188Z,97.85
2018-01-01T01:20:01.202Z,97.85
2018-01-01T01:21:01.485Z,97.27
2018-01-01T01:22:01.497Z,97.75
2018-01-01T01:23:01.529Z,98.13
2018-01-01T01:24:01.531Z,98.03
2018-01-01T01:25:01.561Z,98.32
2018-01-01T01:27:16.274Z,98.03
2018-01-01T01:28:01.604Z,97.7
2018-01-01T01:29:01.639Z,97.85
2018-01-01T01:30:01.674Z,97.51
2018-01-01T01:31:01.678Z,98.13
2018-01-01T01:32:01.694Z,98.36
2018-01-01T01:33:01.716Z,97.99
2018-01-01T01:34:01.731Z,98.08
2018-01-01T01:35:01.749Z,98.08
2018-01-01T01:36:01.784Z,98.08
2018-01-01T01:37:01.800Z,97.89
2018-01-01T01:38:01.810Z,97.89
2018-01-01T01:40:01.876Z,98.27
2018-01-01T01:41:01.870Z,98.18
2018-01-01T01:42:01.899Z,98.27
2018-01-01T01:43:16.586Z,98.27
2018-01-01T01:44:01.942Z,98.08
2018-01-01T01:45:01.707Z,97.89
2018-01-01T01:46:02.016Z,97.85
2018-01-01T01:48:02.017Z,97.27
2018-01-01T01:49:02.053Z,97.17
2018-01-01T01:50:02.049Z,97.89
2018-01-01T01:51:02.076Z,97.37
2018-01-01T01:52:02.106Z,97.94
2018-01-01T01:53:01.857Z,97.27
2018-01-01T01:54:02.131Z,97.08
2018-01-01T01:55:02.172Z,96.89
2018-01-01T01:56:02.170Z,97.17
2018-01-01T01:58:16.896Z,96.7
2018-01-01T01:59:02.244Z,96.41
2018-01-01T02:00:02.260Z,96.51
2018-01-01T02:01:02.026Z,96.22
2018-01-01T02:02:02.308Z,96.32
2018-01-01T02:03:02.073Z,96.7
2018-01-01T02:04:02.331Z,96.32
2018-01-01T02:05:02.365Z,96.32
2018-01-01T02:06:02.380Z,96.13
2018-01-01T02:08:02.495Z,96.98
2018-01-01T02:09:02.430Z,96.61
2018-01-01T02:10:02.465Z,96.61
2018-01-01T02:11:02.477Z,96.13
2018-01-01T02:12:02.488Z,96.51
2018-01-01T02:13:02.531Z,96.7
2018-01-01T02:14:02.537Z,96.61
2018-01-01T02:15:02.554Z,96.51
2018-01-01T02:16:02.567Z,96.41
2018-01-01T02:17:02.589Z,96.22
2018-01-01T02:18:02.611Z,96.7
2018-01-01T02:19:02.636Z,96.51
2018-01-01T02:20:02.664Z,96.51
2018-01-01T02:21:02.697Z,96.41
2018-01-01T02:22:02.708Z,95.94
2018-01-01T02:23:02.743Z,96.61
2018-01-01T02:24:02.760Z,96.13
2018-01-01T02:25:02.758Z,96.41
2018-01-01T02:26:02.768Z,96.41
2018-01-01T02:27:02.810Z,95.94
2018-01-01T02:28:02.567Z,96.03
2018-01-01T02:29:02.839Z,96.13
2018-01-01T02:30:17.532Z,96.22
2018-01-01T02:31:02.870Z,95.94
2018-01-01T02:32:02.914Z,95.84
2018-01-01T02:33:02.657Z,95.94
2018-01-01T02:34:02.944Z,95.84
2018-01-01T02:36:02.985Z,96.03
2018-01-01T02:37:02.990Z,96.41
2018-01-01T02:39:03.041Z,96.22
2018-01-01T02:40:03.068Z,95.94
2018-01-01T02:41:03.072Z,95.56
2018-01-01T02:42:03.084Z,95.56
2018-01-01T02:43:03.159Z,95.84
2018-01-01T02:44:03.138Z,95.84
2018-01-01T02:45:03.169Z,95.27
2018-01-01T02:46:17.851Z,95.84
2018-01-01T02:47:02.948Z,95.37
2018-01-01T02:48:03.235Z,95.27
2018-01-01T02:49:03.243Z,94.89
2018-01-01T02:50:03.320Z,95.46
2018-01-01T02:51:03.268Z,95.65
2018-01-01T02:52:03.287Z,94.98
2018-01-01T02:53:03.068Z,95.08
2018-01-01T02:54:03.397Z,95.27
2018-01-01T02:55:03.368Z,95.08
2018-01-01T02:56:03.131Z,94.6
2018-01-01T02:57:03.406Z,94.51
2018-01-01T02:58:03.427Z,94.6
2018-01-01T02:59:03.430Z,94.65
2018-01-01T03:00:03.452Z,94.41
2018-01-01T03:01:03.489Z,94.51
2018-01-01T03:02:18.167Z,94.6
2018-01-01T03:03:03.276Z,94.89
2018-01-01T03:04:03.528Z,94.22
2018-01-01T03:05:03.295Z,94.41
2018-01-01T03:06:03.593Z,94.7
2018-01-01T03:07:03.598Z,94.22
2018-01-01T03:08:03.622Z,94.79
2018-01-01T03:09:03.401Z,94.6
2018-01-01T03:10:03.648Z,94.17
2018-01-01T03:11:03.672Z,94.22
2018-01-01T03:13:03.454Z,94.03
2018-01-01T03:14:03.733Z,93.36
2018-01-01T03:15:03.750Z,93.08
2018-01-01T03:16:03.517Z,92.98
2018-01-01T03:18:18.494Z,93.93
2018-01-01T03:19:03.847Z,94.03
2018-01-01T03:20:03.847Z,93.65
2018-01-01T03:21:03.878Z,93.74
2018-01-01T03:22:03.658Z,93.93
2018-01-01T03:23:03.675Z,93.84
2018-01-01T03:24:03.930Z,92.88
2018-01-01T03:25:04.012Z,93.55
2018-01-01T03:26:04.034Z,93.22
2018-01-01T03:27:03.998Z,92.98
2018-01-01T03:29:04.027Z,92.98
2018-01-01T03:30:03.811Z,92.98
2018-01-01T03:31:04.096Z,92.6
2018-01-01T03:32:04.094Z,92.98
2018-01-01T03:33:18.783Z,92.41
2018-01-01T03:34:04.147Z,92.6
2018-01-01T03:35:03.899Z,92.69
2018-01-01T03:36:04.173Z,92.79
2018-01-01T03:38:03.963Z,92.12
2018-01-01T03:39:04.226Z,92.32
2018-01-01T03:40:04.252Z,92.88
2018-01-01T03:41:04.274Z,92.69
2018-01-01T03:42:04.292Z,92.79
2018-01-01T03:43:04.306Z,92.5
2018-01-01T03:44:04.336Z,92.65
2018-01-01T03:45:04.379Z,93.03
2018-01-01T03:46:04.375Z,93.7
2018-01-01T03:47:04.391Z,93.79
2018-01-01T03:48:04.505Z,94.27
2018-01-01T03:49:04.453Z,94.84
2018-01-01T03:50:04.203Z,94.37
2018-01-01T03:51:04.492Z,94.27
2018-01-01T03:52:04.505Z,94.65
2018-01-01T03:53:04.524Z,94.84
2018-01-01T03:54:04.288Z,95.03
2018-01-01T03:55:04.569Z,95.03
2018-01-01T03:57:04.597Z,95.41
2018-01-01T03:58:04.368Z,95.41
2018-01-01T04:00:04.667Z,95.7
2018-01-01T04:01:04.665Z,95.7
2018-01-01T04:02:04.691Z,95.7
2018-01-01T04:04:04.725Z,96.08
2018-01-01T04:05:19.430Z,96.56
2018-01-01T04:06:04.763Z,96.46
2018-01-01T04:07:04.783Z,96.56
2018-01-01T04:08:04.819Z,96.46
2018-01-01T04:09:04.842Z,97.08
2018-01-01T04:10:04.593Z,96.8
2018-01-01T04:11:04.892Z,96.7
2018-01-01T04:12:04.910Z,96.98
2018-01-01T04:13:04.909Z,97.84
2018-01-01T04:14:04.933Z,98.03
2018-01-01T04:15:04.690Z,98.27
2018-01-01T04:16:04.729Z,98.32
2018-01-01T04:17:05.003Z,98.51
2018-01-01T04:18:04.752Z,98.51
2018-01-01T04:19:05.038Z,97.84
2018-01-01T04:20:05.035Z,98.32
2018-01-01T04:21:19.748Z,98.08
2018-01-01T04:22:05.076Z,97.89
2018-01-01T04:23:05.109Z,98.03
2018-01-01T04:24:04.886Z,97.84
2018-01-01T04:25:05.141Z,97.7
2018-01-01T04:27:05.199Z,97.84
2018-01-01T04:28:04.956Z,97.84
2018-01-01T04:29:05.217Z,98.03
2018-01-01T04:30:04.988Z,98.08
2018-01-01T04:31:05.016Z,97.94
2018-01-01T04:32:05.284Z,98.03
2018-01-01T04:33:05.043Z,98.27
2018-01-01T04:34:05.324Z,98.13
2018-01-01T04:35:05.364Z,98.22
2018-01-01T04:36:05.363Z,98.27
2018-01-01T04:37:20.058Z,98.03
2018-01-01T04:38:05.421Z,98.22
2018-01-01T04:39:05.177Z,98.03
2018-01-01T04:40:05.442Z,98.32
2018-01-01T04:41:05.454Z,98.32
2018-01-01T04:42:05.482Z,97.84
2018-01-01T04:43:05.520Z,97.56
2018-01-01T04:44:05.522Z,98.03
2018-01-01T04:45:05.282Z,98.41
2018-01-01T04:46:05.576Z,97.84
2018-01-01T04:47:05.585Z,97.89
2018-01-01T04:48:05.594Z,98.36
2018-01-01T04:49:05.368Z,98.22
2018-01-01T04:50:05.639Z,98.27
2018-01-01T04:51:05.670Z,98.75
2018-01-01T04:52:05.690Z,98.89
2018-01-01T04:53:20.373Z,99.18
2018-01-01T04:54:05.719Z,99.18
2018-01-01T04:55:05.481Z,99.55
2018-01-01T04:56:05.753Z,99.94
2018-01-01T04:57:05.788Z,99.55
2018-01-01T04:59:05.814Z,99.99
2018-01-01T05:00:05.579Z,99.99
2018-01-01T05:01:05.844Z,99.99
2018-01-01T05:02:05.626Z,99.99
2018-01-01T05:03:05.890Z,99.99
2018-01-01T05:04:05.915Z,99.99
2018-01-01T05:05:05.694Z,99.99
2018-01-01T05:06:05.965Z,99.99
2018-01-01T05:07:05.715Z,99.99
2018-01-01T05:08:20.764Z,99.99
2018-01-01T05:09:06.011Z,99.99
2018-01-01T05:10:06.042Z,99.99
2018-01-01T05:11:06.045Z,99.99
2018-01-01T05:12:06.092Z,99.99
2018-01-01T05:13:06.083Z,99.99
2018-01-01T05:14:05.850Z,99.99
2018-01-01T05:15:05.879Z,99.99
2018-01-01T05:16:06.153Z,99.99
2018-01-01T05:17:05.912Z,99.99
2018-01-01T05:18:06.188Z,99.99
2018-01-01T05:19:06.210Z,99.99
2018-01-01T05:20:06.250Z,99.99
2018-01-01T05:22:06.269Z,99.99
2018-01-01T05:23:06.041Z,99.99
2018-01-01T05:24:06.300Z,99.99
2018-01-01T05:25:06.328Z,99.99
2018-01-01T05:26:06.344Z,99.99
2018-01-01T05:27:06.357Z,99.99
2018-01-01T05:28:06.394Z,99.99
2018-01-01T05:29:06.424Z,99.99
2018-01-01T05:30:06.415Z,99.99
2018-01-01T05:31:06.436Z,99.99
2018-01-01T05:32:06.462Z,99.99
2018-01-01T05:33:06.494Z,99.99
2018-01-01T05:34:06.500Z,99.99
2018-01-01T05:35:06.516Z,99.99
2018-01-01T05:36:06.561Z,99.99
2018-01-01T05:37:06.587Z,99.99
2018-01-01T05:38:06.600Z,99.99
2018-01-01T05:39:06.609Z,99.99
2018-01-01T05:40:21.289Z,99.99
2018-01-01T05:41:06.645Z,99.99
2018-01-01T05:42:06.648Z,99.99
2018-01-01T05:43:06.417Z,99.99
2018-01-01T05:44:06.690Z,99.99
2018-01-01T05:45:06.724Z,99.99
2018-01-01T05:46:06.758Z,99.99
2018-01-01T05:47:06.757Z,99.99
2018-01-01T05:48:06.763Z,99.99
2018-01-01T05:49:06.809Z,99.99
2018-01-01T05:50:06.839Z,99.99
2018-01-01T05:51:06.577Z,99.99
2018-01-01T05:52:06.854Z,99.99
2018-01-01T05:53:06.628Z,99.99
2018-01-01T05:54:06.653Z,99.99
2018-01-01T05:55:06.672Z,99.99
2018-01-01T05:56:21.611Z,99.99
2018-01-01T05:57:06.944Z,99.99
2018-01-01T05:58:06.711Z,99.99
2018-01-01T05:59:06.988Z,99.99
2018-01-01T06:00:06.761Z,99.99
2018-01-01T06:01:07.021Z,99.99
2018-01-01T06:02:07.068Z,99.99
2018-01-01T06:03:07.087Z,99.99
2018-01-01T06:04:07.095Z,99.99
2018-01-01T06:05:07.111Z,99.99
2018-01-01T06:06:07.114Z,99.99
2018-01-01T06:07:07.137Z,99.99
2018-01-01T06:08:07.160Z,99.99
2018-01-01T06:09:06.923Z,99.99
2018-01-01T06:10:07.214Z,99.99
2018-01-01T06:11:07.211Z,99.99
2018-01-01T06:12:21.921Z,99.99
2018-01-01T06:13:07.255Z,99.99
2018-01-01T06:14:07.274Z,99.99
2018-01-01T06:15:07.296Z,99.99
2018-01-01T06:16:07.308Z,99.99
2018-01-01T06:17:07.357Z,99.99
2018-01-01T06:18:07.356Z,99.99
2018-01-01T06:20:07.391Z,99.99
2018-01-01T06:21:07.413Z,99.99
2018-01-01T06:22:07.428Z,99.99
2018-01-01T06:23:07.194Z,99.99
2018-01-01T06:24:07.234Z,99.99
2018-01-01T06:25:07.508Z,99.99
2018-01-01T06:26:07.510Z,99.99
2018-01-01T06:27:07.537Z,99.99
2018-01-01T06:28:22.231Z,99.51
2018-01-01T06:29:07.583Z,99.13
2018-01-01T06:30:07.612Z,97.79
2018-01-01T06:31:07.610Z,96.17
2018-01-01T06:32:07.622Z,97.17
2018-01-01T06:33:07.663Z,96.12
2018-01-01T06:34:07.675Z,96.32
2018-01-01T06:35:07.676Z,96.7
2018-01-01T06:36:07.461Z,95.65
2018-01-01T06:37:07.722Z,95.41
2018-01-01T06:39:07.753Z,94.22
2018-01-01T06:40:07.773Z,93.27
2018-01-01T06:41:07.796Z,93.08
2018-01-01T06:42:07.572Z,92.6
2018-01-01T06:43:22.514Z,91.65
2018-01-01T06:44:07.615Z,91.17
2018-01-01T06:45:07.876Z,90.22
2018-01-01T06:46:07.913Z,90.5
2018-01-01T06:47:07.943Z,90.56
2018-01-01T06:48:07.701Z,89.98
2018-01-01T06:49:07.973Z,89.75
2018-01-01T06:50:07.989Z,89.89
2018-01-01T06:51:07.982Z,89.89
2018-01-01T06:52:08.028Z,89.7
2018-01-01T06:54:08.046Z,89.61
2018-01-01T06:56:08.090Z,89.13
2018-01-01T06:57:08.115Z,88.46
2018-01-01T06:58:07.880Z,88.56
2018-01-01T06:59:08.144Z,88.18
2018-01-01T07:00:08.185Z,87.79
2018-01-01T07:01:08.195Z,87.23
2018-01-01T07:02:08.206Z,87.51
2018-01-01T07:04:07.993Z,86.36
2018-01-01T07:05:08.256Z,86.36
2018-01-01T07:06:08.272Z,85.8
2018-01-01T07:07:08.319Z,85.51
2018-01-01T07:08:08.315Z,85.89
2018-01-01T07:09:08.332Z,85.7
2018-01-01T07:10:08.104Z,85.8
2018-01-01T07:11:08.372Z,85.89
2018-01-01T07:12:08.138Z,85.89
2018-01-01T07:13:08.437Z,85.03
2018-01-01T07:14:08.186Z,85.41
2018-01-01T07:15:23.125Z,85.22
2018-01-01T07:16:08.229Z,85.41
2018-01-01T07:17:08.234Z,84.84
2018-01-01T07:18:08.514Z,84.65
2018-01-01T07:19:08.522Z,84.46
2018-01-01T07:20:08.555Z,84.84
2018-01-01T07:21:08.570Z,83.8
2018-01-01T07:22:08.703Z,83.89
2018-01-01T07:23:08.598Z,84.56
2018-01-01T07:24:08.625Z,84.46
2018-01-01T07:25:08.668Z,84.46
2018-01-01T07:26:08.653Z,84.65
2018-01-01T07:27:08.444Z,85.13
2018-01-01T07:28:08.695Z,85.22
2018-01-01T07:29:08.717Z,85.13
2018-01-01T07:30:08.750Z,85.22
2018-01-01T07:31:23.429Z,85.8
2018-01-01T07:32:08.809Z,85.99
2018-01-01T07:33:08.817Z,85.89
2018-01-01T07:34:08.808Z,85.8
2018-01-01T07:35:08.828Z,85.7
2018-01-01T07:36:08.878Z,85.85
2018-01-01T07:37:08.864Z,85.8
2018-01-01T07:38:08.896Z,85.75
2018-01-01T07:40:08.924Z,86.13
2018-01-01T07:41:08.942Z,86.65
2018-01-01T07:42:08.971Z,86.46
2018-01-01T07:43:08.984Z,86.27
2018-01-01T07:44:09.006Z,86.51
2018-01-01T07:45:09.041Z,86.51
2018-01-01T07:46:09.037Z,86.75
2018-01-01T07:47:23.743Z,86.8
2018-01-01T07:48:09.095Z,87.7
2018-01-01T07:49:09.102Z,87.98
2018-01-01T07:50:08.860Z,87.65
2018-01-01T07:51:09.142Z,88.79
2018-01-01T07:52:09.154Z,88.79
2018-01-01T07:53:09.192Z,89.32
2018-01-01T07:54:08.944Z,89.75
2018-01-01T07:55:09.333Z,90.13
2018-01-01T07:56:09.253Z,90.7
2018-01-01T07:57:09.267Z,91.22
2018-01-01T07:58:09.278Z,90.61
2018-01-01T07:59:09.292Z,91.22
2018-01-01T08:00:09.303Z,91.65
2018-01-01T08:01:09.089Z,91.7
2018-01-01T08:02:09.347Z,91.6
2018-01-01T08:03:24.048Z,92.18
2018-01-01T08:04:09.450Z,92.18
2018-01-01T08:05:09.426Z,91.75
2018-01-01T08:06:09.186Z,91.65
2018-01-01T08:07:09.437Z,91.56
2018-01-01T08:08:09.471Z,91.84
2018-01-01T08:09:09.237Z,91.84
2018-01-01T08:10:09.500Z,92.51
2018-01-01T08:11:09.534Z,92.32
2018-01-01T08:13:09.587Z,92.6
2018-01-01T08:14:09.321Z,92.79
2018-01-01T08:15:09.618Z,92.79
2018-01-01T08:16:09.639Z,93.27
2018-01-01T08:17:09.637Z,92.99
2018-01-01T08:18:24.327Z,92.7
2018-01-01T08:19:09.418Z,93.27
2018-01-01T08:20:09.688Z,93.37
2018-01-01T08:21:09.456Z,93.27
2018-01-01T08:22:09.760Z,93.18
2018-01-01T08:23:09.769Z,93.46
2018-01-01T08:24:09.790Z,93.65
2018-01-01T08:25:09.788Z,93.65
2018-01-01T08:26:09.662Z,93.46
2018-01-01T08:27:09.834Z,93.94
2018-01-01T08:28:09.864Z,93.74
2018-01-01T08:29:09.861Z,93.74
2018-01-01T08:31:09.921Z,93.65
2018-01-01T08:32:09.940Z,93.74
2018-01-01T08:33:09.939Z,93.37
2018-01-01T08:34:09.962Z,93.46
2018-01-01T08:35:10.002Z,93.55
2018-01-01T08:36:10.001Z,94.32
2018-01-01T08:38:10.051Z,93.94
2018-01-01T08:39:10.074Z,93.94
2018-01-01T08:40:10.098Z,94.13
2018-01-01T08:41:10.090Z,94.22
2018-01-01T08:42:10.114Z,94.7
2018-01-01T08:43:10.145Z,94.13
2018-01-01T08:44:10.168Z,93.65
2018-01-01T08:45:10.175Z,94.13
2018-01-01T08:46:10.212Z,93.74
2018-01-01T08:47:10.208Z,93.65
2018-01-01T08:48:10.232Z,93.37
2018-01-01T08:49:10.250Z,93.37
2018-01-01T08:50:24.940Z,93.46
2018-01-01T08:51:10.288Z,92.6
2018-01-01T08:52:10.308Z,92.89
2018-01-01T08:53:10.335Z,92.89
2018-01-01T08:54:10.356Z,92.41
2018-01-01T08:55:10.358Z,92.22
2018-01-01T08:56:10.376Z,92.13
2018-01-01T08:57:10.400Z,92.41
2018-01-01T08:58:10.420Z,92.41
2018-01-01T09:01:10.493Z,92.32
2018-01-01T09:02:10.496Z,91.65
2018-01-01T09:03:10.516Z,91.08
2018-01-01T09:04:10.535Z,90.89
2018-01-01T09:05:10.554Z,90.51
2018-01-01T09:06:25.246Z,90.32
2018-01-01T09:07:10.345Z,90.32
2018-01-01T09:08:10.629Z,90.42
2018-01-01T09:09:10.627Z,89.84
2018-01-01T09:10:10.685Z,89.41
2018-01-01T09:11:10.680Z,89.22
2018-01-01T09:12:10.708Z,89.03
2018-01-01T09:13:10.714Z,89.51
2018-01-01T09:14:10.732Z,88.84
2018-01-01T09:15:10.764Z,88.93
2018-01-01T09:16:10.766Z,88.75
2018-01-01T09:17:10.794Z,88.89
2018-01-01T09:19:10.589Z,88.84
2018-01-01T09:20:10.847Z,88.93
2018-01-01T09:21:10.859Z,87.7
2018-01-01T09:22:25.574Z,87.7
2018-01-01T09:23:10.891Z,87.41
2018-01-01T09:24:10.687Z,87.13
2018-01-01T09:25:10.936Z,86.84
2018-01-01T09:26:10.956Z,86.65
2018-01-01T09:27:11.001Z,86.18
2018-01-01T09:28:10.999Z,86.65
2018-01-01T09:29:11.015Z,85.99
2018-01-01T09:30:11.050Z,86.27
2018-01-01T09:31:11.081Z,86.08
2018-01-01T09:32:11.093Z,85.32
2018-01-01T09:33:11.118Z,84.84
2018-01-01T09:34:11.131Z,85.41
2018-01-01T09:35:11.151Z,85.22
2018-01-01T09:36:11.152Z,85.32
2018-01-01T09:37:11.164Z,84.84
2018-01-01T09:38:25.871Z,85.03
2018-01-01T09:39:10.961Z,84.84
2018-01-01T09:40:11.230Z,84.56
2018-01-01T09:42:11.032Z,84.56
2018-01-01T09:43:11.301Z,84.84
2018-01-01T09:44:11.335Z,84.75
2018-01-01T09:45:11.325Z,83.89
2018-01-01T09:46:11.357Z,83.61
2018-01-01T09:47:11.382Z,83.22
2018-01-01T09:49:11.431Z,83.26
2018-01-01T09:50:11.438Z,83.22
2018-01-01T09:51:11.452Z,83.32
2018-01-01T09:52:11.216Z,83.65
2018-01-01T09:53:26.273Z,82.75
2018-01-01T09:54:11.511Z,82.98
2018-01-01T09:55:11.548Z,82.75
2018-01-01T09:56:11.551Z,82.41
2018-01-01T09:57:11.568Z,81.65
2018-01-01T09:58:11.335Z,82.69
2018-01-01T09:59:11.714Z,82.41
2018-01-01T10:00:11.652Z,82.31
2018-01-01T10:01:11.649Z,81.46
2018-01-01T10:02:11.673Z,81.51
2018-01-01T10:03:11.434Z,82.03
2018-01-01T10:04:11.451Z,82.12
2018-01-01T10:05:11.729Z,81.93
2018-01-01T10:06:11.747Z,81.55
2018-01-01T10:07:11.782Z,81.46
2018-01-01T10:08:11.782Z,81.74
2018-01-01T10:09:11.565Z,81.89
2018-01-01T10:10:11.843Z,81.41
2018-01-01T10:12:11.883Z,81.55
2018-01-01T10:14:11.903Z,81.55
2018-01-01T10:15:11.941Z,81.17
2018-01-01T10:16:11.704Z,80.88
2018-01-01T10:17:11.958Z,81.17
2018-01-01T10:18:12.004Z,81.46
2018-01-01T10:19:12.001Z,81.36
2018-01-01T10:20:12.048Z,81.46
2018-01-01T10:21:12.039Z,81.07
2018-01-01T10:22:12.061Z,80.88
2018-01-01T10:23:12.085Z,81.36
2018-01-01T10:24:11.847Z,81.17
2018-01-01T10:25:26.800Z,80.69
2018-01-01T10:26:12.139Z,80.79
2018-01-01T10:27:12.159Z,80.69
2018-01-01T10:28:12.177Z,80.69
2018-01-01T10:29:11.945Z,80.69
2018-01-01T10:30:12.212Z,80.69
2018-01-01T10:31:12.238Z,79.93
2018-01-01T10:33:12.297Z,80.88
2018-01-01T10:34:12.298Z,81.07
2018-01-01T10:36:12.356Z,80.02
2018-01-01T10:37:12.376Z,81.17
2018-01-01T10:38:12.378Z,80.98
2018-01-01T10:39:12.395Z,81.36
2018-01-01T10:40:12.429Z,81.17
2018-01-01T10:41:27.119Z,81.17
2018-01-01T10:42:12.453Z,81.46
2018-01-01T10:43:12.496Z,80.79
2018-01-01T10:44:12.501Z,80.79
2018-01-01T10:45:12.536Z,81.17
2018-01-01T10:46:12.537Z,80.6
2018-01-01T10:47:12.550Z,81.26
2018-01-01T10:48:12.571Z,80.88
2018-01-01T10:50:12.616Z,81.07
2018-01-01T10:51:12.644Z,80.69
2018-01-01T10:52:12.418Z,80.98
2018-01-01T10:54:12.694Z,81.55
2018-01-01T10:55:12.459Z,81.17
2018-01-01T10:56:12.478Z,80.88
2018-01-01T10:57:27.432Z,81.36
2018-01-01T10:58:12.793Z,81.51
2018-01-01T10:59:12.814Z,81.6
2018-01-01T11:00:12.580Z,81.26
2018-01-01T11:01:12.588Z,81.13
2018-01-01T11:02:12.846Z,80.94
2018-01-01T11:03:12.887Z,80.84
2018-01-01T11:04:12.887Z,81.23
2018-01-01T11:05:12.662Z,81.41
2018-01-01T11:06:12.686Z,81.51
2018-01-01T11:07:12.706Z,81.32
2018-01-01T11:08:12.711Z,80.65
2018-01-01T11:09:13.015Z,80.75
2018-01-01T11:10:13.006Z,80.84
2018-01-01T11:11:13.020Z,81.03
2018-01-01T11:12:13.063Z,80.65
2018-01-01T11:13:27.746Z,80.65
2018-01-01T11:14:13.106Z,80.94
2018-01-01T11:15:13.111Z,80.75
2018-01-01T11:16:12.873Z,80.94
2018-01-01T11:17:13.167Z,80.65
2018-01-01T11:18:13.154Z,80.55
2018-01-01T11:19:13.206Z,79.89
2018-01-01T11:20:13.209Z,80.18
2018-01-01T11:21:13.245Z,80.84
2018-01-01T11:22:13.271Z,80.27
2018-01-01T11:23:13.271Z,80.65
2018-01-01T11:24:13.302Z,80.65
2018-01-01T11:25:13.316Z,79.89
2018-01-01T11:26:13.314Z,80.27
2018-01-01T11:27:13.076Z,80.55
2018-01-01T11:28:28.032Z,80.55
2018-01-01T11:29:13.377Z,79.8
2018-01-01T11:30:13.416Z,79.7
2018-01-01T11:31:13.411Z,79.89
2018-01-01T11:32:13.436Z,80.27
2018-01-01T11:33:13.450Z,79.99
2018-01-01T11:34:13.461Z,79.51
2018-01-01T11:35:13.236Z,79.93
2018-01-01T11:36:13.505Z,79.83
2018-01-01T11:37:13.555Z,79.64
2018-01-01T11:38:13.586Z,79.93
2018-01-01T11:39:13.563Z,79.83
2018-01-01T11:41:13.628Z,79.46
2018-01-01T11:42:13.639Z,79.36
2018-01-01T11:43:13.664Z,79.36
2018-01-01T11:44:13.661Z,79.07
2018-01-01T11:45:13.702Z,78.41
2018-01-01T11:46:13.732Z,78.5
2018-01-01T11:47:13.740Z,78.41
2018-01-01T11:48:13.766Z,78.5
2018-01-01T11:49:13.754Z,78.22
2018-01-01T11:50:13.774Z,77.74
2018-01-01T11:51:13.794Z,77.83
2018-01-01T11:52:13.815Z,78.41
2018-01-01T11:53:13.867Z,77.74
2018-01-01T11:54:13.854Z,77.83
2018-01-01T11:55:13.623Z,77.55
2018-01-01T11:56:13.654Z,77.17
2018-01-01T11:57:13.935Z,76.79
2018-01-01T11:58:13.932Z,77.55
2018-01-01T12:00:28.652Z,77.36
2018-01-01T12:01:14.013Z,77.64
2018-01-01T12:02:14.031Z,77.36
2018-01-01T12:03:14.046Z,77.64
2018-01-01T12:04:13.817Z,77.26
2018-01-01T12:05:14.076Z,76.4
2018-01-01T12:06:14.096Z,76.59
2018-01-01T12:07:14.114Z,76.31
2018-01-01T12:08:14.165Z,76.31
2018-01-01T12:09:14.154Z,76.98
2018-01-01T12:11:14.208Z,76.4
2018-01-01T12:12:19.406Z,76.21
2018-01-01T12:13:14.219Z,76.31
2018-01-01T12:14:13.997Z,76.59
2018-01-01T12:15:14.277Z,76.4
2018-01-01T12:16:28.988Z,74.69
2018-01-01T12:17:14.329Z,74.88
2018-01-01T12:18:14.093Z,75.93
2018-01-01T12:19:14.350Z,75.55
2018-01-01T12:20:14.376Z,75.55
2018-01-01T12:21:14.392Z,75.55
2018-01-01T12:22:14.408Z,75.74
2018-01-01T12:23:14.423Z,75.55
2018-01-01T12:25:14.465Z,76.12
2018-01-01T12:26:14.487Z,75.64
2018-01-01T12:27:14.511Z,75.07
2018-01-01T12:28:14.522Z,75.74
2018-01-01T12:29:14.575Z,75.93
2018-01-01T12:30:14.312Z,75.55
2018-01-01T12:31:14.597Z,76.03
2018-01-01T12:32:29.278Z,75.93
2018-01-01T12:33:14.623Z,76.21
2018-01-01T12:34:14.379Z,76.4
2018-01-01T12:35:14.416Z,77.17
2018-01-01T12:36:14.682Z,76.31
2018-01-01T12:37:14.712Z,76.88
2018-01-01T12:38:14.474Z,76.98
2018-01-01T12:39:14.750Z,76.31
2018-01-01T12:40:14.494Z,76.12
2018-01-01T12:41:14.776Z,76.03
2018-01-01T12:42:14.896Z,76.21
2018-01-01T12:44:14.834Z,75.55
2018-01-01T12:45:14.611Z,75.45
2018-01-01T12:46:14.880Z,75.55
2018-01-01T12:47:14.902Z,75.55
2018-01-01T12:48:29.594Z,74.98
2018-01-01T12:49:14.920Z,75.84
2018-01-01T12:50:14.953Z,75.64
2018-01-01T12:51:14.962Z,75.84
2018-01-01T12:52:14.985Z,76.4
2018-01-01T12:53:15.033Z,76.21
2018-01-01T12:54:15.043Z,76.08
2018-01-01T12:55:15.043Z,75.79
2018-01-01T12:56:15.080Z,75.93
2018-01-01T12:57:15.084Z,75.55
2018-01-01T12:58:15.161Z,75.26
2018-01-01T12:59:14.868Z,74.4
2018-01-01T13:01:15.176Z,74.88
2018-01-01T13:02:15.187Z,74.4
2018-01-01T13:03:29.876Z,74.6
2018-01-01T13:04:15.219Z,74.79
2018-01-01T13:05:15.237Z,74.98
2018-01-01T13:06:15.315Z,75.74
2018-01-01T13:07:15.302Z,75.07
2018-01-01T13:08:15.303Z,75.55
2018-01-01T13:10:15.333Z,75.36
2018-01-01T13:12:15.378Z,76.21
2018-01-01T13:13:15.399Z,75.36
2018-01-01T13:14:15.417Z,75.64
2018-01-01T13:15:15.444Z,75.55
2018-01-01T13:17:15.477Z,75.93
2018-01-01T13:18:15.520Z,76.4
2018-01-01T13:19:15.558Z,76.98
2018-01-01T13:20:15.553Z,76.31
2018-01-01T13:21:15.310Z,74.98
2018-01-01T13:22:15.576Z,74.98
2018-01-01T13:23:15.618Z,74.21
2018-01-01T13:24:15.626Z,74.12
2018-01-01T13:25:15.654Z,74.4
2018-01-01T13:26:15.403Z,74.4
2018-01-01T13:27:15.665Z,74.46
2018-01-01T13:28:15.441Z,74.02
2018-01-01T13:29:15.708Z,73.65
2018-01-01T13:30:15.738Z,73.26
2018-01-01T13:32:15.773Z,72.78
2018-01-01T13:33:15.810Z,73.07
2018-01-01T13:34:15.822Z,73.45
2018-01-01T13:35:30.503Z,72.88
2018-01-01T13:36:15.604Z,72.6
2018-01-01T13:37:15.868Z,73.13
2018-01-01T13:38:15.902Z,73.8
2018-01-01T13:39:15.899Z,73.13
2018-01-01T13:40:15.953Z,73.03
2018-01-01T13:41:15.700Z,73.99
2018-01-01T13:43:15.977Z,74.27
2018-01-01T13:44:15.760Z,74.18
2018-01-01T13:45:16.019Z,73.57
2018-01-01T13:46:16.048Z,73.28
2018-01-01T13:47:16.077Z,73.66
2018-01-01T13:48:16.101Z,73.28
2018-01-01T13:49:16.100Z,74.04